sensor_id;sensor_type;location;lat;lon;timestamp;temperature;humidity
76787;DHT22;65739;51.482;5.702;2024-01-16T19:49:52;-1.50;99.90
76787;DHT22;65739;51.482;5.702;2024-01-16T20:18:10;-1.50;99.90
76787;DHT22;65739;51.482;5.702;2024-01-16T20:21:15;-1.50;99.90
76787;DHT22;65739;51.482;5.702;2024-01-16T20:37:21;-1.50;99.90
76787;DHT22;65739;51.482;5.702;2024-01-16T20:47:39;-1.50;99.90
76787;DHT22;65739;51.482;5.702;2024-01-16T20:54:05;-1.40;99.90
76787;DHT22;65739;51.482;5.702;2024-01-16T20:57:01;-1.40;99.90
76787;DHT22;65739;51.482;5.702;2024-01-16T21:00:20;-1.40;99.90
76787;DHT22;65739;51.482;5.702;2024-01-16T21:06:12;-1.40;99.90
76787;DHT22;65739;51.482;5.702;2024-01-16T21:52:03;-1.70;99.90
76787;DHT22;65739;51.482;5.702;2024-01-16T21:55:13;-1.70;99.90
76787;DHT22;65739;51.482;5.702;2024-01-16T22:05:17;-1.80;99.90
76787;DHT22;65739;51.482;5.702;2024-01-16T22:08:49;-1.90;99.90
76787;DHT22;65739;51.482;5.702;2024-01-16T22:22:11;-2.00;99.90
76787;DHT22;65739;51.482;5.702;2024-01-16T22:28:29;-2.00;99.90
76787;DHT22;65739;51.482;5.702;2024-01-16T22:31:15;-2.00;99.90
76787;DHT22;65739;51.482;5.702;2024-01-16T22:33:51;-2.00;99.90
76787;DHT22;65739;51.482;5.702;2024-01-16T22:43:22;-2.10;99.90
76787;DHT22;65739;51.482;5.702;2024-01-16T22:46:28;-1.80;99.90
76787;DHT22;65739;51.482;5.702;2024-01-16T22:49:14;-1.90;99.90
76787;DHT22;65739;51.482;5.702;2024-01-16T22:51:57;-2.00;99.90
76787;DHT22;65739;51.482;5.702;2024-01-16T22:55:03;-2.00;99.90
76787;DHT22;65739;51.482;5.702;2024-01-16T22:58:00;-2.00;99.90
76787;DHT22;65739;51.482;5.702;2024-01-16T23:00:49;-2.10;99.90
76787;DHT22;65739;51.482;5.702;2024-01-16T23:03:26;-2.00;99.90
76787;DHT22;65739;51.482;5.702;2024-01-16T23:06:37;-2.00;99.90
76787;DHT22;65739;51.482;5.702;2024-01-16T23:09:18;-2.10;99.90
76787;DHT22;65739;51.482;5.702;2024-01-16T23:11:58;-2.10;99.90
76787;DHT22;65739;51.482;5.702;2024-01-16T23:14:34;-2.20;99.90
76787;DHT22;65739;51.482;5.702;2024-01-16T23:17:20;-2.20;99.90
76787;DHT22;65739;51.482;5.702;2024-01-16T23:19:48;-2.20;99.90
76787;DHT22;65739;51.482;5.702;2024-01-16T23:22:21;-2.20;99.90
76787;DHT22;65739;51.482;5.702;2024-01-16T23:24:48;-2.20;99.90
76787;DHT22;65739;51.482;5.702;2024-01-16T23:27:29;-2.20;99.90
76787;DHT22;65739;51.482;5.702;2024-01-16T23:30:05;-2.20;99.90
76787;DHT22;65739;51.482;5.702;2024-01-16T23:33:13;-2.20;99.90
76787;DHT22;65739;51.482;5.702;2024-01-16T23:35:52;-2.20;99.90
76787;DHT22;65739;51.482;5.702;2024-01-16T23:38:30;-2.20;99.90
76787;DHT22;65739;51.482;5.702;2024-01-16T23:41:19;-2.20;99.90
76787;DHT22;65739;51.482;5.702;2024-01-16T23:43:57;-2.30;99.90
76787;DHT22;65739;51.482;5.702;2024-01-16T23:49:38;-2.30;99.90
76787;DHT22;65739;51.482;5.702;2024-01-16T23:52:06;-2.30;99.90
